sensor_id;sensor_type;location;lat;lon;timestamp;temperature;humidity
14101;DHT22;7127;49.372;8.166;2023-08-21T00:00:48;28.50;50.80
14101;DHT22;7127;49.372;8.166;2023-08-21T00:03:15;28.70;51.60
14101;DHT22;7127;49.372;8.166;2023-08-21T00:05:42;28.70;51.00
14101;DHT22;7127;49.372;8.166;2023-08-21T00:08:09;28.60;51.00
14101;DHT22;7127;49.372;8.166;2023-08-21T00:10:37;28.50;51.00
14101;DHT22;7127;49.372;8.166;2023-08-21T00:13:05;28.60;51.10
14101;DHT22;7127;49.372;8.166;2023-08-21T00:15:32;28.50;51.20
14101;DHT22;7127;49.372;8.166;2023-08-21T00:17:59;28.60;51.20
14101;DHT22;7127;49.372;8.166;2023-08-21T00:20:27;28.50;51.30
14101;DHT22;7127;49.372;8.166;2023-08-21T00:22:53;28.40;51.20
14101;DHT22;7127;49.372;8.166;2023-08-21T00:25:21;28.40;51.40
14101;DHT22;7127;49.372;8.166;2023-08-21T00:27:48;28.40;51.40
14101;DHT22;7127;49.372;8.166;2023-08-21T00:30:16;28.50;51.50
14101;DHT22;7127;49.372;8.166;2023-08-21T00:32:43;28.40;51.50
14101;DHT22;7127;49.372;8.166;2023-08-21T00:35:10;28.40;51.50
14101;DHT22;7127;49.372;8.166;2023-08-21T00:37:37;28.40;51.50
14101;DHT22;7127;49.372;8.166;2023-08-21T00:40:05;28.40;51.60
14101;DHT22;7127;49.372;8.166;2023-08-21T00:42:32;28.40;51.60
14101;DHT22;7127;49.372;8.166;2023-08-21T00:44:58;28.40;51.60
14101;DHT22;7127;49.372;8.166;2023-08-21T00:47:27;28.40;51.60
14101;DHT22;7127;49.372;8.166;2023-08-21T00:49:54;28.40;51.60
14101;DHT22;7127;49.372;8.166;2023-08-21T00:52:21;28.40;51.60
14101;DHT22;7127;49.372;8.166;2023-08-21T00:54:49;28.40;51.70
14101;DHT22;7127;49.372;8.166;2023-08-21T00:57:16;28.40;51.70
14101;DHT22;7127;49.372;8.166;2023-08-21T00:59:43;28.40;51.70
14101;DHT22;7127;49.372;8.166;2023-08-21T01:02:11;28.50;51.90
14101;DHT22;7127;49.372;8.166;2023-08-21T01:04:39;28.30;51.80
14101;DHT22;7127;49.372;8.166;2023-08-21T01:07:06;28.20;51.80
14101;DHT22;7127;49.372;8.166;2023-08-21T01:09:39;28.20;51.90
14101;DHT22;7127;49.372;8.166;2023-08-21T01:12:15;28.30;51.90
14101;DHT22;7127;49.372;8.166;2023-08-21T01:14:51;28.20;51.90
14101;DHT22;7127;49.372;8.166;2023-08-21T01:17:19;28.20;51.90
14101;DHT22;7127;49.372;8.166;2023-08-21T01:19:50;28.20;51.90
14101;DHT22;7127;49.372;8.166;2023-08-21T01:22:18;28.20;52.00
14101;DHT22;7127;49.372;8.166;2023-08-21T01:24:47;28.10;52.00
14101;DHT22;7127;49.372;8.166;2023-08-21T01:27:13;28.00;52.00
14101;DHT22;7127;49.372;8.166;2023-08-21T01:29:41;28.20;52.20
14101;DHT22;7127;49.372;8.166;2023-08-21T01:32:14;28.00;52.10
14101;DHT22;7127;49.372;8.166;2023-08-21T01:34:43;28.00;52.30
14101;DHT22;7127;49.372;8.166;2023-08-21T01:37:10;28.00;52.30
14101;DHT22;7127;49.372;8.166;2023-08-21T01:39:38;28.00;52.30
14101;DHT22;7127;49.372;8.166;2023-08-21T01:42:06;28.00;52.40
14101;DHT22;7127;49.372;8.166;2023-08-21T01:44:33;27.90;52.40
14101;DHT22;7127;49.372;8.166;2023-08-21T01:47:00;27.90;52.50
14101;DHT22;7127;49.372;8.166;2023-08-21T01:49:26;27.90;52.50
14101;DHT22;7127;49.372;8.166;2023-08-21T01:51:53;27.90;52.60
14101;DHT22;7127;49.372;8.166;2023-08-21T01:54:20;27.90;52.70
14101;DHT22;7127;49.372;8.166;2023-08-21T01:56:47;27.90;52.70
14101;DHT22;7127;49.372;8.166;2023-08-21T01:59:16;27.90;52.80
14101;DHT22;7127;49.372;8.166;2023-08-21T02:01:43;27.80;52.80
14101;DHT22;7127;49.372;8.166;2023-08-21T02:04:10;27.70;52.70
14101;DHT22;7127;49.372;8.166;2023-08-21T02:06:37;27.80;52.80
14101;DHT22;7127;49.372;8.166;2023-08-21T02:09:04;27.80;52.90
14101;DHT22;7127;49.372;8.166;2023-08-21T02:11:31;27.70;52.90
14101;DHT22;7127;49.372;8.166;2023-08-21T02:13:57;27.60;52.90
14101;DHT22;7127;49.372;8.166;2023-08-21T02:16:25;27.70;53.10
14101;DHT22;7127;49.372;8.166;2023-08-21T02:18:52;27.70;53.20
14101;DHT22;7127;49.372;8.166;2023-08-21T02:21:20;27.60;53.20
14101;DHT22;7127;49.372;8.166;2023-08-21T02:23:47;27.60;53.30
14101;DHT22;7127;49.372;8.166;2023-08-21T02:26:13;27.50;53.30
14101;DHT22;7127;49.372;8.166;2023-08-21T02:28:40;27.60;53.40
14101;DHT22;7127;49.372;8.166;2023-08-21T02:31:09;27.50;53.30
14101;DHT22;7127;49.372;8.166;2023-08-21T02:33:37;27.50;53.50
14101;DHT22;7127;49.372;8.166;2023-08-21T02:36:04;27.50;53.50
14101;DHT22;7127;49.372;8.166;2023-08-21T02:38:32;27.50;53.50
14101;DHT22;7127;49.372;8.166;2023-08-21T02:40:59;27.50;53.50
14101;DHT22;7127;49.372;8.166;2023-08-21T02:43:26;27.60;53.70
14101;DHT22;7127;49.372;8.166;2023-08-21T02:45:53;27.50;53.60
14101;DHT22;7127;49.372;8.166;2023-08-21T02:48:20;27.40;53.70
14101;DHT22;7127;49.372;8.166;2023-08-21T02:50:48;27.50;53.70
14101;DHT22;7127;49.372;8.166;2023-08-21T02:53:15;27.60;53.80
14101;DHT22;7127;49.372;8.166;2023-08-21T02:55:42;27.40;53.70
14101;DHT22;7127;49.372;8.166;2023-08-21T02:58:09;27.50;53.80
14101;DHT22;7127;49.372;8.166;2023-08-21T03:00:36;27.50;53.80
14101;DHT22;7127;49.372;8.166;2023-08-21T03:03:03;27.40;53.80
14101;DHT22;7127;49.372;8.166;2023-08-21T03:05:30;27.40;53.90
14101;DHT22;7127;49.372;8.166;2023-08-21T03:07:58;27.40;53.90
14101;DHT22;7127;49.372;8.166;2023-08-21T03:10:25;27.40;53.90
14101;DHT22;7127;49.372;8.166;2023-08-21T03:12:54;27.40;54.00
14101;DHT22;7127;49.372;8.166;2023-08-21T03:15:21;27.30;54.00
14101;DHT22;7127;49.372;8.166;2023-08-21T03:17:48;27.30;54.00
14101;DHT22;7127;49.372;8.166;2023-08-21T03:20:15;27.30;54.00
14101;DHT22;7127;49.372;8.166;2023-08-21T03:22:43;27.30;54.10
14101;DHT22;7127;49.372;8.166;2023-08-21T03:25:12;27.30;54.10
14101;DHT22;7127;49.372;8.166;2023-08-21T03:27:39;27.20;54.10
14101;DHT22;7127;49.372;8.166;2023-08-21T03:30:10;27.30;54.20
14101;DHT22;7127;49.372;8.166;2023-08-21T03:32:40;27.30;54.20
14101;DHT22;7127;49.372;8.166;2023-08-21T03:35:07;27.30;54.30
14101;DHT22;7127;49.372;8.166;2023-08-21T03:37:34;27.20;54.20
14101;DHT22;7127;49.372;8.166;2023-08-21T03:40:02;27.30;54.30
14101;DHT22;7127;49.372;8.166;2023-08-21T03:42:30;27.20;54.30
14101;DHT22;7127;49.372;8.166;2023-08-21T03:44:57;27.20;54.40
14101;DHT22;7127;49.372;8.166;2023-08-21T03:47:24;27.20;54.50
14101;DHT22;7127;49.372;8.166;2023-08-21T03:49:51;27.20;54.50
14101;DHT22;7127;49.372;8.166;2023-08-21T03:52:18;27.10;54.40
14101;DHT22;7127;49.372;8.166;2023-08-21T03:54:45;27.10;54.50
14101;DHT22;7127;49.372;8.166;2023-08-21T03:57:12;27.10;54.60
14101;DHT22;7127;49.372;8.166;2023-08-21T03:59:40;27.10;54.60
14101;DHT22;7127;49.372;8.166;2023-08-21T04:02:07;27.00;54.60
14101;DHT22;7127;49.372;8.166;2023-08-21T04:04:34;27.00;54.60
14101;DHT22;7127;49.372;8.166;2023-08-21T04:07:01;26.90;54.70
14101;DHT22;7127;49.372;8.166;2023-08-21T04:09:28;27.00;54.80
14101;DHT22;7127;49.372;8.166;2023-08-21T04:11:54;26.90;54.70
14101;DHT22;7127;49.372;8.166;2023-08-21T04:14:21;26.90;54.80
14101;DHT22;7127;49.372;8.166;2023-08-21T04:16:49;27.00;54.90
14101;DHT22;7127;49.372;8.166;2023-08-21T04:19:16;26.90;54.90
14101;DHT22;7127;49.372;8.166;2023-08-21T04:21:43;26.90;55.00
14101;DHT22;7127;49.372;8.166;2023-08-21T04:24:10;26.90;55.00
14101;DHT22;7127;49.372;8.166;2023-08-21T04:26:37;26.90;55.00
14101;DHT22;7127;49.372;8.166;2023-08-21T04:29:04;26.90;55.00
14101;DHT22;7127;49.372;8.166;2023-08-21T04:31:30;26.90;55.10
14101;DHT22;7127;49.372;8.166;2023-08-21T04:33:59;26.80;55.10
14101;DHT22;7127;49.372;8.166;2023-08-21T04:36:25;26.90;55.20
14101;DHT22;7127;49.372;8.166;2023-08-21T04:38:52;26.80;55.20
14101;DHT22;7127;49.372;8.166;2023-08-21T04:41:19;26.80;55.30
14101;DHT22;7127;49.372;8.166;2023-08-21T04:43:46;26.80;55.20
14101;DHT22;7127;49.372;8.166;2023-08-21T04:46:13;26.80;55.30
14101;DHT22;7127;49.372;8.166;2023-08-21T04:48:39;26.80;55.40
14101;DHT22;7127;49.372;8.166;2023-08-21T04:51:08;26.80;55.40
14101;DHT22;7127;49.372;8.166;2023-08-21T04:53:35;26.80;55.50
14101;DHT22;7127;49.372;8.166;2023-08-21T04:56:02;26.80;56.20
14101;DHT22;7127;49.372;8.166;2023-08-21T04:58:29;26.80;55.50
14101;DHT22;7127;49.372;8.166;2023-08-21T05:00:55;26.80;55.60
14101;DHT22;7127;49.372;8.166;2023-08-21T05:03:22;26.80;55.50
14101;DHT22;7127;49.372;8.166;2023-08-21T05:05:52;26.90;55.60
14101;DHT22;7127;49.372;8.166;2023-08-21T05:08:22;26.90;55.60
14101;DHT22;7127;49.372;8.166;2023-08-21T05:10:54;26.80;55.60
14101;DHT22;7127;49.372;8.166;2023-08-21T05:13:21;27.00;55.70
14101;DHT22;7127;49.372;8.166;2023-08-21T05:15:51;26.90;55.60
14101;DHT22;7127;49.372;8.166;2023-08-21T05:18:18;26.90;55.60
14101;DHT22;7127;49.372;8.166;2023-08-21T05:20:45;26.90;55.60
14101;DHT22;7127;49.372;8.166;2023-08-21T05:23:12;26.90;55.70
14101;DHT22;7127;49.372;8.166;2023-08-21T05:25:40;26.90;55.60
14101;DHT22;7127;49.372;8.166;2023-08-21T05:28:07;27.00;55.70
14101;DHT22;7127;49.372;8.166;2023-08-21T05:30:35;26.90;55.60
14101;DHT22;7127;49.372;8.166;2023-08-21T05:33:02;27.00;55.70
14101;DHT22;7127;49.372;8.166;2023-08-21T05:35:32;27.00;55.70
14101;DHT22;7127;49.372;8.166;2023-08-21T05:37:59;27.00;55.70
14101;DHT22;7127;49.372;8.166;2023-08-21T05:40:25;27.00;55.70
14101;DHT22;7127;49.372;8.166;2023-08-21T05:42:54;27.10;55.80
14101;DHT22;7127;49.372;8.166;2023-08-21T05:45:20;27.20;55.80
14101;DHT22;7127;49.372;8.166;2023-08-21T05:47:47;27.20;55.80
14101;DHT22;7127;49.372;8.166;2023-08-21T05:50:14;27.10;55.70
14101;DHT22;7127;49.372;8.166;2023-08-21T05:52:41;27.30;55.80
14101;DHT22;7127;49.372;8.166;2023-08-21T05:55:08;27.30;55.80
14101;DHT22;7127;49.372;8.166;2023-08-21T05:57:36;27.30;55.80
14101;DHT22;7127;49.372;8.166;2023-08-21T06:00:06;27.40;55.80
14101;DHT22;7127;49.372;8.166;2023-08-21T06:02:34;27.40;55.80
14101;DHT22;7127;49.372;8.166;2023-08-21T06:05:01;27.50;55.70
14101;DHT22;7127;49.372;8.166;2023-08-21T06:07:28;27.50;55.80
14101;DHT22;7127;49.372;8.166;2023-08-21T06:09:55;27.50;55.70
14101;DHT22;7127;49.372;8.166;2023-08-21T06:12:22;27.60;55.80
14101;DHT22;7127;49.372;8.166;2023-08-21T06:14:49;27.70;55.80
14101;DHT22;7127;49.372;8.166;2023-08-21T06:17:17;27.70;55.60
14101;DHT22;7127;49.372;8.166;2023-08-21T06:19:44;27.60;55.60
14101;DHT22;7127;49.372;8.166;2023-08-21T06:22:10;27.80;55.70
14101;DHT22;7127;49.372;8.166;2023-08-21T06:24:37;27.80;55.60
14101;DHT22;7127;49.372;8.166;2023-08-21T06:27:04;27.80;55.50
14101;DHT22;7127;49.372;8.166;2023-08-21T06:29:31;27.90;55.50
14101;DHT22;7127;49.372;8.166;2023-08-21T06:31:58;28.00;55.50
14101;DHT22;7127;49.372;8.166;2023-08-21T06:34:26;28.00;55.40
14101;DHT22;7127;49.372;8.166;2023-08-21T06:36:53;28.10;55.40
14101;DHT22;7127;49.372;8.166;2023-08-21T06:39:20;28.00;55.20
14101;DHT22;7127;49.372;8.166;2023-08-21T06:41:47;28.10;55.20
14101;DHT22;7127;49.372;8.166;2023-08-21T06:44:14;28.30;55.40
14101;DHT22;7127;49.372;8.166;2023-08-21T06:46:41;28.30;55.20
14101;DHT22;7127;49.372;8.166;2023-08-21T06:49:08;28.30;55.10
14101;DHT22;7127;49.372;8.166;2023-08-21T06:51:36;28.20;55.00
14101;DHT22;7127;49.372;8.166;2023-08-21T06:54:03;28.40;55.00
14101;DHT22;7127;49.372;8.166;2023-08-21T06:56:30;28.40;55.00
14101;DHT22;7127;49.372;8.166;2023-08-21T06:58:57;28.40;54.90
14101;DHT22;7127;49.372;8.166;2023-08-21T07:01:24;28.50;55.00
14101;DHT22;7127;49.372;8.166;2023-08-21T07:03:51;28.50;55.00
14101;DHT22;7127;49.372;8.166;2023-08-21T07:06:18;28.60;55.00
14101;DHT22;7127;49.372;8.166;2023-08-21T07:08:46;28.60;55.00
14101;DHT22;7127;49.372;8.166;2023-08-21T07:11:13;28.60;54.90
14101;DHT22;7127;49.372;8.166;2023-08-21T07:13:40;28.60;54.90
14101;DHT22;7127;49.372;8.166;2023-08-21T07:16:06;28.60;54.80
14101;DHT22;7127;49.372;8.166;2023-08-21T07:18:35;28.70;54.90
14101;DHT22;7127;49.372;8.166;2023-08-21T07:21:02;28.70;54.80
14101;DHT22;7127;49.372;8.166;2023-08-21T07:23:30;28.80;54.80
14101;DHT22;7127;49.372;8.166;2023-08-21T07:25:58;28.80;54.80
14101;DHT22;7127;49.372;8.166;2023-08-21T07:28:26;28.90;54.90
14101;DHT22;7127;49.372;8.166;2023-08-21T07:30:56;28.90;54.80
14101;DHT22;7127;49.372;8.166;2023-08-21T07:33:24;29.00;54.70
14101;DHT22;7127;49.372;8.166;2023-08-21T07:35:57;29.10;54.80
14101;DHT22;7127;49.372;8.166;2023-08-21T07:38:24;29.10;54.70
14101;DHT22;7127;49.372;8.166;2023-08-21T07:40:51;29.10;54.70
14101;DHT22;7127;49.372;8.166;2023-08-21T07:43:20;29.10;54.60
14101;DHT22;7127;49.372;8.166;2023-08-21T07:45:47;29.10;54.40
14101;DHT22;7127;49.372;8.166;2023-08-21T07:48:14;29.20;54.50
14101;DHT22;7127;49.372;8.166;2023-08-21T07:50:40;29.30;54.50
14101;DHT22;7127;49.372;8.166;2023-08-21T07:53:07;29.40;54.70
14101;DHT22;7127;49.372;8.166;2023-08-21T07:55:34;29.40;54.60
14101;DHT22;7127;49.372;8.166;2023-08-21T07:58:01;29.30;54.50
14101;DHT22;7127;49.372;8.166;2023-08-21T08:00:31;29.50;54.50
14101;DHT22;7127;49.372;8.166;2023-08-21T08:02:58;29.60;55.10
14101;DHT22;7127;49.372;8.166;2023-08-21T08:05:25;29.60;54.40
14101;DHT22;7127;49.372;8.166;2023-08-21T08:07:51;29.60;54.40
14101;DHT22;7127;49.372;8.166;2023-08-21T08:10:18;29.70;54.40
14101;DHT22;7127;49.372;8.166;2023-08-21T08:12:46;29.70;54.40
14101;DHT22;7127;49.372;8.166;2023-08-21T08:15:13;29.80;54.30
14101;DHT22;7127;49.372;8.166;2023-08-21T08:17:41;29.80;54.20
14101;DHT22;7127;49.372;8.166;2023-08-21T08:20:09;29.90;54.20
14101;DHT22;7127;49.372;8.166;2023-08-21T08:22:36;30.00;54.10
14101;DHT22;7127;49.372;8.166;2023-08-21T08:25:03;30.10;54.10
14101;DHT22;7127;49.372;8.166;2023-08-21T08:27:31;30.10;53.90
14101;DHT22;7127;49.372;8.166;2023-08-21T08:29:58;30.10;53.90
14101;DHT22;7127;49.372;8.166;2023-08-21T08:32:25;30.10;54.30
14101;DHT22;7127;49.372;8.166;2023-08-21T08:34:54;30.20;53.70
14101;DHT22;7127;49.372;8.166;2023-08-21T08:37:21;30.20;53.70
14101;DHT22;7127;49.372;8.166;2023-08-21T08:39:48;30.30;53.60
14101;DHT22;7127;49.372;8.166;2023-08-21T08:42:16;30.30;53.50
14101;DHT22;7127;49.372;8.166;2023-08-21T08:44:43;30.40;53.50
14101;DHT22;7127;49.372;8.166;2023-08-21T08:47:11;30.30;53.50
14101;DHT22;7127;49.372;8.166;2023-08-21T08:49:38;30.50;53.60
14101;DHT22;7127;49.372;8.166;2023-08-21T08:52:06;30.50;53.50
14101;DHT22;7127;49.372;8.166;2023-08-21T08:54:33;30.60;53.40
14101;DHT22;7127;49.372;8.166;2023-08-21T08:57:03;30.60;53.30
14101;DHT22;7127;49.372;8.166;2023-08-21T08:59:30;30.60;53.30
14101;DHT22;7127;49.372;8.166;2023-08-21T09:01:57;30.60;53.10
14101;DHT22;7127;49.372;8.166;2023-08-21T09:04:24;30.70;53.20
14101;DHT22;7127;49.372;8.166;2023-08-21T09:06:51;30.80;53.10
14101;DHT22;7127;49.372;8.166;2023-08-21T09:09:19;30.80;53.00
14101;DHT22;7127;49.372;8.166;2023-08-21T09:11:47;30.90;52.80
14101;DHT22;7127;49.372;8.166;2023-08-21T09:14:14;30.90;52.80
14101;DHT22;7127;49.372;8.166;2023-08-21T09:16:59;31.00;53.00
14101;DHT22;7127;49.372;8.166;2023-08-21T09:19:26;31.00;52.90
14101;DHT22;7127;49.372;8.166;2023-08-21T09:21:53;31.10;53.00
14101;DHT22;7127;49.372;8.166;2023-08-21T09:24:21;31.10;52.90
14101;DHT22;7127;49.372;8.166;2023-08-21T09:26:49;31.10;52.70
14101;DHT22;7127;49.372;8.166;2023-08-21T09:29:16;31.30;52.70
14101;DHT22;7127;49.372;8.166;2023-08-21T09:31:43;31.30;52.40
14101;DHT22;7127;49.372;8.166;2023-08-21T09:34:11;31.40;52.10
14101;DHT22;7127;49.372;8.166;2023-08-21T09:36:38;31.50;52.10
14101;DHT22;7127;49.372;8.166;2023-08-21T09:39:05;31.50;52.00
14101;DHT22;7127;49.372;8.166;2023-08-21T09:41:34;31.50;51.60
14101;DHT22;7127;49.372;8.166;2023-08-21T09:44:01;31.60;51.60
14101;DHT22;7127;49.372;8.166;2023-08-21T09:46:29;31.60;51.50
14101;DHT22;7127;49.372;8.166;2023-08-21T09:48:56;31.70;51.50
14101;DHT22;7127;49.372;8.166;2023-08-21T09:51:23;31.70;51.20
14101;DHT22;7127;49.372;8.166;2023-08-21T09:53:50;31.80;51.20
14101;DHT22;7127;49.372;8.166;2023-08-21T09:56:18;31.80;51.10
14101;DHT22;7127;49.372;8.166;2023-08-21T09:58:47;31.90;50.90
14101;DHT22;7127;49.372;8.166;2023-08-21T10:01:16;32.00;50.60
14101;DHT22;7127;49.372;8.166;2023-08-21T10:03:44;32.00;50.40
14101;DHT22;7127;49.372;8.166;2023-08-21T10:06:15;32.10;50.10
14101;DHT22;7127;49.372;8.166;2023-08-21T10:08:46;32.10;49.90
14101;DHT22;7127;49.372;8.166;2023-08-21T10:11:19;32.20;49.70
14101;DHT22;7127;49.372;8.166;2023-08-21T10:13:48;32.30;49.50
14101;DHT22;7127;49.372;8.166;2023-08-21T10:16:16;32.30;49.20
14101;DHT22;7127;49.372;8.166;2023-08-21T10:18:44;32.30;48.90
14101;DHT22;7127;49.372;8.166;2023-08-21T10:21:13;32.50;48.70
14101;DHT22;7127;49.372;8.166;2023-08-21T10:23:40;32.40;48.20
14101;DHT22;7127;49.372;8.166;2023-08-21T10:26:10;32.50;48.10
14101;DHT22;7127;49.372;8.166;2023-08-21T10:28:50;32.50;47.90
14101;DHT22;7127;49.372;8.166;2023-08-21T10:31:32;32.60;47.60
14101;DHT22;7127;49.372;8.166;2023-08-21T10:34:00;32.60;47.50
14101;DHT22;7127;49.372;8.166;2023-08-21T10:37:04;32.70;47.60
14101;DHT22;7127;49.372;8.166;2023-08-21T10:39:33;32.80;47.70
14101;DHT22;7127;49.372;8.166;2023-08-21T10:42:04;32.80;47.40
14101;DHT22;7127;49.372;8.166;2023-08-21T10:44:49;32.80;47.20
14101;DHT22;7127;49.372;8.166;2023-08-21T10:47:19;33.00;46.60
14101;DHT22;7127;49.372;8.166;2023-08-21T10:49:47;33.00;47.00
14101;DHT22;7127;49.372;8.166;2023-08-21T10:52:14;33.00;46.90
14101;DHT22;7127;49.372;8.166;2023-08-21T10:54:46;33.00;47.00
14101;DHT22;7127;49.372;8.166;2023-08-21T10:57:13;33.10;46.80
14101;DHT22;7127;49.372;8.166;2023-08-21T10:59:51;33.20;46.50
14101;DHT22;7127;49.372;8.166;2023-08-21T11:02:18;33.20;46.20
14101;DHT22;7127;49.372;8.166;2023-08-21T11:04:45;33.30;46.40
14101;DHT22;7127;49.372;8.166;2023-08-21T11:07:12;33.30;46.10
14101;DHT22;7127;49.372;8.166;2023-08-21T11:09:39;33.40;46.00
14101;DHT22;7127;49.372;8.166;2023-08-21T11:12:08;33.40;45.90
14101;DHT22;7127;49.372;8.166;2023-08-21T11:14:35;33.50;45.90
14101;DHT22;7127;49.372;8.166;2023-08-21T11:17:04;33.60;45.90
14101;DHT22;7127;49.372;8.166;2023-08-21T11:19:31;33.70;45.90
14101;DHT22;7127;49.372;8.166;2023-08-21T11:21:58;33.70;45.90
14101;DHT22;7127;49.372;8.166;2023-08-21T11:24:40;33.80;45.90
14101;DHT22;7127;49.372;8.166;2023-08-21T11:27:08;33.80;45.40
14101;DHT22;7127;49.372;8.166;2023-08-21T11:29:38;33.90;45.50
14101;DHT22;7127;49.372;8.166;2023-08-21T11:32:12;34.00;44.90
14101;DHT22;7127;49.372;8.166;2023-08-21T11:34:40;34.10;44.70
14101;DHT22;7127;49.372;8.166;2023-08-21T11:37:08;34.10;44.90
14101;DHT22;7127;49.372;8.166;2023-08-21T11:39:40;34.20;44.80
14101;DHT22;7127;49.372;8.166;2023-08-21T11:42:09;34.20;44.50
14101;DHT22;7127;49.372;8.166;2023-08-21T11:44:41;34.30;44.50
14101;DHT22;7127;49.372;8.166;2023-08-21T11:47:09;34.30;44.40
14101;DHT22;7127;49.372;8.166;2023-08-21T11:49:37;34.40;44.50
14101;DHT22;7127;49.372;8.166;2023-08-21T11:52:06;34.40;44.30
14101;DHT22;7127;49.372;8.166;2023-08-21T11:54:34;34.50;44.10
14101;DHT22;7127;49.372;8.166;2023-08-21T11:57:04;34.50;44.00
14101;DHT22;7127;49.372;8.166;2023-08-21T11:59:31;34.60;44.00
14101;DHT22;7127;49.372;8.166;2023-08-21T12:01:58;34.60;44.10
14101;DHT22;7127;49.372;8.166;2023-08-21T12:04:27;34.60;44.00
14101;DHT22;7127;49.372;8.166;2023-08-21T12:06:54;34.70;44.10
14101;DHT22;7127;49.372;8.166;2023-08-21T12:09:21;34.80;44.10
14101;DHT22;7127;49.372;8.166;2023-08-21T12:11:48;34.80;43.80
14101;DHT22;7127;49.372;8.166;2023-08-21T12:14:15;35.00;43.70
14101;DHT22;7127;49.372;8.166;2023-08-21T12:16:42;35.00;43.40
14101;DHT22;7127;49.372;8.166;2023-08-21T12:19:09;35.10;43.30
14101;DHT22;7127;49.372;8.166;2023-08-21T12:21:38;35.10;42.70
14101;DHT22;7127;49.372;8.166;2023-08-21T12:24:05;35.20;42.70
14101;DHT22;7127;49.372;8.166;2023-08-21T12:26:32;35.20;42.60
14101;DHT22;7127;49.372;8.166;2023-08-21T12:29:00;35.30;42.50
14101;DHT22;7127;49.372;8.166;2023-08-21T12:31:28;35.40;42.50
14101;DHT22;7127;49.372;8.166;2023-08-21T12:33:55;35.40;42.30
14101;DHT22;7127;49.372;8.166;2023-08-21T12:36:23;35.50;42.10
14101;DHT22;7127;49.372;8.166;2023-08-21T12:38:51;35.50;42.10
14101;DHT22;7127;49.372;8.166;2023-08-21T12:41:18;35.60;41.80
14101;DHT22;7127;49.372;8.166;2023-08-21T12:43:45;35.60;41.70
14101;DHT22;7127;49.372;8.166;2023-08-21T12:46:11;35.70;41.70
14101;DHT22;7127;49.372;8.166;2023-08-21T12:48:38;35.70;41.70
14101;DHT22;7127;49.372;8.166;2023-08-21T12:51:05;35.70;41.60
14101;DHT22;7127;49.372;8.166;2023-08-21T12:53:32;35.70;41.50
14101;DHT22;7127;49.372;8.166;2023-08-21T12:56:00;35.80;41.00
14101;DHT22;7127;49.372;8.166;2023-08-21T12:58:28;35.80;41.00
14101;DHT22;7127;49.372;8.166;2023-08-21T13:00:55;35.70;40.70
14101;DHT22;7127;49.372;8.166;2023-08-21T13:03:22;35.80;41.30
14101;DHT22;7127;49.372;8.166;2023-08-21T13:05:49;35.70;40.60
14101;DHT22;7127;49.372;8.166;2023-08-21T13:08:17;35.70;40.30
14101;DHT22;7127;49.372;8.166;2023-08-21T13:10:44;35.70;40.30
14101;DHT22;7127;49.372;8.166;2023-08-21T13:13:12;35.60;40.30
14101;DHT22;7127;49.372;8.166;2023-08-21T13:15:39;35.60;40.50
14101;DHT22;7127;49.372;8.166;2023-08-21T13:18:06;35.50;40.50
14101;DHT22;7127;49.372;8.166;2023-08-21T13:20:33;35.50;40.40
14101;DHT22;7127;49.372;8.166;2023-08-21T13:22:59;35.50;40.50
14101;DHT22;7127;49.372;8.166;2023-08-21T13:25:26;35.40;40.50
14101;DHT22;7127;49.372;8.166;2023-08-21T13:27:54;35.40;40.30
14101;DHT22;7127;49.372;8.166;2023-08-21T13:30:22;35.40;40.30
14101;DHT22;7127;49.372;8.166;2023-08-21T13:32:49;35.40;40.50
14101;DHT22;7127;49.372;8.166;2023-08-21T13:35:16;35.40;41.10
14101;DHT22;7127;49.372;8.166;2023-08-21T13:37:45;35.40;41.10
14101;DHT22;7127;49.372;8.166;2023-08-21T13:40:12;35.50;40.50
14101;DHT22;7127;49.372;8.166;2023-08-21T13:42:42;35.40;40.50
14101;DHT22;7127;49.372;8.166;2023-08-21T13:45:11;35.40;40.40
14101;DHT22;7127;49.372;8.166;2023-08-21T13:47:39;35.50;40.40
14101;DHT22;7127;49.372;8.166;2023-08-21T13:50:07;35.40;40.10
14101;DHT22;7127;49.372;8.166;2023-08-21T13:52:36;35.50;40.30
14101;DHT22;7127;49.372;8.166;2023-08-21T13:55:05;35.40;40.30
14101;DHT22;7127;49.372;8.166;2023-08-21T13:57:32;35.50;40.20
14101;DHT22;7127;49.372;8.166;2023-08-21T14:00:00;35.40;40.00
14101;DHT22;7127;49.372;8.166;2023-08-21T14:02:27;35.40;39.90
14101;DHT22;7127;49.372;8.166;2023-08-21T14:04:55;35.40;40.20
14101;DHT22;7127;49.372;8.166;2023-08-21T14:07:21;35.50;40.20
14101;DHT22;7127;49.372;8.166;2023-08-21T14:09:49;35.50;40.30
14101;DHT22;7127;49.372;8.166;2023-08-21T14:12:16;35.50;40.30
14101;DHT22;7127;49.372;8.166;2023-08-21T14:14:43;35.60;40.30
14101;DHT22;7127;49.372;8.166;2023-08-21T14:17:09;35.60;40.10
14101;DHT22;7127;49.372;8.166;2023-08-21T14:19:36;35.50;40.00
14101;DHT22;7127;49.372;8.166;2023-08-21T14:22:04;35.70;40.10
14101;DHT22;7127;49.372;8.166;2023-08-21T14:24:32;35.70;39.90
14101;DHT22;7127;49.372;8.166;2023-08-21T14:26:59;35.70;39.80
14101;DHT22;7127;49.372;8.166;2023-08-21T14:29:26;35.70;39.70
14101;DHT22;7127;49.372;8.166;2023-08-21T14:31:52;35.70;39.80
14101;DHT22;7127;49.372;8.166;2023-08-21T14:34:19;35.70;39.80
14101;DHT22;7127;49.372;8.166;2023-08-21T14:36:47;35.80;39.90
14101;DHT22;7127;49.372;8.166;2023-08-21T14:39:15;35.80;39.70
14101;DHT22;7127;49.372;8.166;2023-08-21T14:41:42;35.80;40.40
14101;DHT22;7127;49.372;8.166;2023-08-21T14:44:10;35.80;39.70
14101;DHT22;7127;49.372;8.166;2023-08-21T14:46:37;35.90;39.80
14101;DHT22;7127;49.372;8.166;2023-08-21T14:49:03;35.80;39.80
14101;DHT22;7127;49.372;8.166;2023-08-21T14:51:30;35.90;39.90
14101;DHT22;7127;49.372;8.166;2023-08-21T14:53:57;35.90;39.80
14101;DHT22;7127;49.372;8.166;2023-08-21T14:56:25;35.90;39.60
14101;DHT22;7127;49.372;8.166;2023-08-21T14:58:52;35.90;39.60
14101;DHT22;7127;49.372;8.166;2023-08-21T15:01:19;35.80;39.40
14101;DHT22;7127;49.372;8.166;2023-08-21T15:03:45;35.80;39.30
14101;DHT22;7127;49.372;8.166;2023-08-21T15:06:12;35.70;39.30
14101;DHT22;7127;49.372;8.166;2023-08-21T15:08:42;35.70;39.40
14101;DHT22;7127;49.372;8.166;2023-08-21T15:11:09;35.70;39.50
14101;DHT22;7127;49.372;8.166;2023-08-21T15:13:40;35.70;39.50
14101;DHT22;7127;49.372;8.166;2023-08-21T15:16:07;35.70;39.60
14101;DHT22;7127;49.372;8.166;2023-08-21T15:18:33;35.60;39.70
14101;DHT22;7127;49.372;8.166;2023-08-21T15:21:00;35.60;39.70
14101;DHT22;7127;49.372;8.166;2023-08-21T15:23:28;35.70;39.70
14101;DHT22;7127;49.372;8.166;2023-08-21T15:25:54;35.70;39.80
14101;DHT22;7127;49.372;8.166;2023-08-21T15:28:21;35.70;39.80
14101;DHT22;7127;49.372;8.166;2023-08-21T15:30:50;35.70;39.60
14101;DHT22;7127;49.372;8.166;2023-08-21T15:33:16;35.70;39.50
14101;DHT22;7127;49.372;8.166;2023-08-21T15:35:43;35.70;39.50
14101;DHT22;7127;49.372;8.166;2023-08-21T15:38:10;35.80;39.40
14101;DHT22;7127;49.372;8.166;2023-08-21T15:40:37;35.80;39.40
14101;DHT22;7127;49.372;8.166;2023-08-21T15:43:04;35.80;39.30
14101;DHT22;7127;49.372;8.166;2023-08-21T15:45:33;35.90;39.30
14101;DHT22;7127;49.372;8.166;2023-08-21T15:48:02;35.90;39.20